Pagrindinis puslapis
METAR-TAF:

METAR-TAF

Oro uostai :

Grazzanise, Italija

platuma: 41-03N, ilguma: 014-04E, Aukštis: 9 m

Dabartinis oras

Ataskaita buvo paskelbta 56 minutes, ne 01:55 UTC
Vėjas 4 kt iš Šiaurės/Šiaurės Rytų
Temperatūra 2°C
Drėgmė 93%
Slėgis 1025 hPa
Matomumas: 8000 m

METAR: LIRM 180155Z 03004KT 8000 NSC 02/01 Q1025 RMK SCT SCT100 VIS MIN 8000 WIND THR06 01005KT BLU

Laikas: 03:51 (02:51 UTC)

Prognozė

Ataskaita buvo paskelbta 51 minutes, ne 02:00 UTC
Prognozė galioja nuo 18 metu 03 UTC su 18 metu 12 UTC
Vėjas 6 kt iš Rytų/Šiaurės Rytų
Matomumas: 7000 m
Laikinai
nuo 18 metu 03 UTC su 18 metu 06 UTC
Matomumas: 5000 m
Mažai debesys ne aukštis 800 ft
rūkana

TAF: LIRM 180200Z 1803/1812 07006KT 7000 NSC TEMPO 1803/1806 5000 BR FEW008

Orai ataskaitas ir orų prognozės (METAR, TAF).

turimą stotys yra geltonos ir raudonos taškus žemėlapyje.

Perkelti pele per norėdami pamatyti stoties vardą.

Tada spustelėkite, norėdami matyti oro stebėjimo ir prognozės.

Norėdami pakeisti žemėlapį: spustelėkite ant žalios mygtukų su juodo kryžiaus žemyn,; žalią mygtuką su brūkšneliu, jei norite nutolinti; arba žalių rodyklių gretimoms žemėlapius.


METAR-TAF: